Time;durP1;ratioP1;P1;durP2;ratioP2;P2;SDS_P1;SDS_P2;PMS_P1;PMS_P2;Temp;Humidity;BMP_temperature;BMP_pressure;BME280_temperature;BME280_humidity;BME280_pressure;Samples;Min_cycle;Max_cycle;Signal;HPM_P1;HPM_P2
2021/11/03 00:06:46;;;;;;;28.08;18.30;;;;;;;;;;5010741;28;20040;-80
2021/11/03 00:09:11;;;;;;;27.00;15.75;;;;;;;;;;5014587;28;20542;-80
2021/11/03 00:22:01;;;;;;;24.05;12.70;;;;;;;;;;5015191;28;20045;-81
2021/11/03 00:24:26;;;;;;;22.70;13.60;;;;;;;;;;5014010;28;20064;-80
2021/11/03 00:26:52;;;;;;;25.08;13.38;;;;;;;;;;4999301;28;20046;-80
2021/11/03 00:29:17;;;;;;;18.83;12.73;;;;;;;;;;5011372;28;20044;-82
2021/11/03 00:31:43;;;;;;;18.65;13.05;;;;;;;;;;5012140;28;20531;-82
2021/11/03 00:34:08;;;;;;;20.10;12.45;;;;;;;;;;4995947;28;20052;-80
2021/11/03 00:36:34;;;;;;;21.77;13.52;;;;;;;;;;5012323;28;20046;-79
2021/11/03 00:39:00;;;;;;;20.73;11.98;;;;;;;;;;5013687;28;20057;-82
2021/11/03 00:41:26;;;;;;;22.63;15.57;;;;;;;;;;5013870;28;20058;-80
2021/11/03 00:43:53;;;;;;;22.88;12.68;;;;;;;;;;5012603;28;20136;-81
2021/11/03 00:46:19;;;;;;;21.55;10.55;;;;;;;;;;5013370;28;20050;-81
2021/11/03 00:48:45;;;;;;;20.77;14.07;;;;;;;;;;4995997;28;20037;-81
2021/11/03 00:51:11;;;;;;;18.55;12.15;;;;;;;;;;5011000;28;20052;-81
2021/11/03 01:00:25;;;;;;;16.45;10.57;;;;;;;;;;5014833;28;20513;-80
2021/11/03 02:10:06;;;;;;;21.92;13.20;;;;;;;;;;5011941;28;20161;-80
2021/11/03 03:31:48;;;;;;;15.55;10.07;;;;;;;;;;5010736;28;20133;-80
2021/11/03 03:34:17;;;;;;;17.77;10.90;;;;;;;;;;4994842;28;20054;-81
2021/11/03 03:36:44;;;;;;;23.80;13.13;;;;;;;;;;4994236;28;20147;-81
2021/11/03 03:39:12;;;;;;;24.67;14.38;;;;;;;;;;5011455;28;20095;-79
2021/11/03 03:41:41;;;;;;;22.40;14.35;;;;;;;;;;4995094;28;20042;-81
2021/11/03 03:44:07;;;;;;;18.60;11.88;;;;;;;;;;4993793;28;20100;-81
2021/11/03 03:46:32;;;;;;;21.38;12.40;;;;;;;;;;4995904;28;20423;-81
2021/11/03 03:48:58;;;;;;;17.17;10.15;;;;;;;;;;5012537;28;20034;-79
2021/11/03 04:11:34;;;;;;;19.05;10.98;;;;;;;;;;5013627;28;20060;-79
2021/11/03 04:27:28;;;;;;;17.70;9.85;;;;;;;;;;5010868;28;20057;-79
2021/11/03 04:29:53;;;;;;;14.98;9.95;;;;;;;;;;4995592;28;20041;-82
2021/11/03 06:19:27;;;;;;;29.58;16.95;;;;;;;;;;5007562;28;20116;-72
2021/11/03 06:21:53;;;;;;;25.08;16.73;;;;;;;;;;4990269;28;20082;-72
2021/11/03 06:27:41;;;;;;;31.65;16.75;;;;;;;;;;4991535;28;20072;-74
2021/11/03 06:30:08;;;;;;;27.33;17.33;;;;;;;;;;4973391;28;20042;-72
2021/11/03 07:34:18;;;;;;;24.70;16.23;;;;;;;;;;5009831;28;20072;-71
2021/11/03 07:36:44;;;;;;;22.17;12.18;;;;;;;;;;5013372;28;20057;-71
2021/11/03 07:39:09;;;;;;;26.42;15.10;;;;;;;;;;5011065;28;20050;-71
2021/11/03 07:41:35;;;;;;;21.88;14.55;;;;;;;;;;5011798;28;20069;-72
2021/11/03 08:10:55;;;;;;;25.30;15.52;;;;;;;;;;5013276;28;20553;-73
2021/11/03 08:16:45;;;;;;;22.05;14.80;;;;;;;;;;5013209;28;20084;-73
2021/11/03 08:19:11;;;;;;;28.48;16.52;;;;;;;;;;5010575;28;20050;-71
2021/11/03 08:21:37;;;;;;;26.20;15.82;;;;;;;;;;4993573;28;20038;-73
2021/11/03 08:30:49;;;;;;;26.95;15.93;;;;;;;;;;5006547;28;20048;-72
2021/11/03 08:36:37;;;;;;;24.33;14.02;;;;;;;;;;5007821;28;20049;-72
2021/11/03 08:39:05;;;;;;;27.08;17.38;;;;;;;;;;5009947;28;20041;-72
2021/11/03 08:41:30;;;;;;;25.20;15.25;;;;;;;;;;4994534;28;20041;-72
2021/11/03 08:58:01;;;;;;;31.02;16.60;;;;;;;;;;5011948;28;20090;-73
2021/11/03 09:00:33;;;;;;;25.77;15.68;;;;;;;;;;5010575;28;20152;-73
2021/11/03 09:03:00;;;;;;;29.83;15.82;;;;;;;;;;5009803;28;20111;-73
2021/11/03 09:05:28;;;;;;;27.92;13.65;;;;;;;;;;5009683;28;20076;-72
2021/11/03 09:08:31;;;;;;;28.58;15.75;;;;;;;;;;5009562;28;20069;-72
2021/11/03 09:11:00;;;;;;;36.65;19.23;;;;;;;;;;4991161;28;20041;-73
2021/11/03 09:13:27;;;;;;;32.38;14.23;;;;;;;;;;5008484;28;20804;-73
2021/11/03 09:15:53;;;;;;;28.90;14.23;;;;;;;;;;4993126;28;20072;-74
2021/11/03 09:18:20;;;;;;;25.20;14.10;;;;;;;;;;4994267;28;20041;-72
2021/11/03 09:20:47;;;;;;;27.83;15.90;;;;;;;;;;5010070;28;20061;-72
2021/11/03 09:23:13;;;;;;;27.92;17.40;;;;;;;;;;4993171;28;20034;-73
2021/11/03 09:25:39;;;;;;;29.30;17.25;;;;;;;;;;4994374;28;20034;-72
2021/11/03 09:32:19;;;;;;;29.73;16.23;;;;;;;;;;5010842;28;20049;-73
2021/11/03 09:34:49;;;;;;;27.30;15.52;;;;;;;;;;4992912;28;20041;-73
2021/11/03 09:37:18;;;;;;;25.48;16.67;;;;;;;;;;4992967;28;20046;-72
2021/11/03 09:39:50;;;;;;;28.45;16.52;;;;;;;;;;5008870;28;20491;-72
2021/11/03 09:42:17;;;;;;;29.08;16.73;;;;;;;;;;5008338;28;20045;-73
2021/11/03 10:21:15;;;;;;;23.92;15.75;;;;;;;;;;5010591;28;20161;-73
2021/11/03 10:41:52;;;;;;;21.67;13.27;;;;;;;;;;5008334;28;20093;-74
2021/11/03 10:44:24;;;;;;;23.42;15.15;;;;;;;;;;5029100;28;20533;-74
2021/11/03 10:47:27;;;;;;;27.27;15.15;;;;;;;;;;5012799;28;20136;-72
2021/11/03 10:50:02;;;;;;;22.52;14.55;;;;;;;;;;5011316;28;20041;-72
2021/11/03 10:52:46;;;;;;;26.02;14.60;;;;;;;;;;5028935;28;20050;-73
2021/11/03 10:55:37;;;;;;;27.20;16.50;;;;;;;;;;5012771;28;20050;-72
2021/11/03 11:01:24;;;;;;;22.67;13.48;;;;;;;;;;5020710;28;20095;-74
2021/11/03 11:04:11;;;;;;;24.15;14.52;;;;;;;;;;5030210;28;20045;-75
2021/11/03 11:06:54;;;;;;;21.38;13.65;;;;;;;;;;5029041;28;20037;-74
2021/11/03 11:09:43;;;;;;;24.30;15.50;;;;;;;;;;5012939;28;20112;-73
2021/11/03 11:12:52;;;;;;;24.73;13.63;;;;;;;;;;5012276;28;20490;-74
2021/11/03 11:15:28;;;;;;;23.70;13.98;;;;;;;;;;5028889;28;20071;-75
2021/11/03 11:18:17;;;;;;;25.83;14.65;;;;;;;;;;5030725;28;20045;-76
2021/11/03 11:21:07;;;;;;;21.88;14.18;;;;;;;;;;4990531;28;20029;-74
2021/11/03 11:31:06;;;;;;;23.58;14.50;;;;;;;;;;5033611;28;20052;-74
2021/11/03 11:36:37;;;;;;;24.23;13.15;;;;;;;;;;5246549;23;20544;-74
2021/11/03 11:39:21;;;;;;;24.17;16.13;;;;;;;;;;4956082;29;20200;-75
2021/11/03 11:41:53;;;;;;;23.27;14.82;;;;;;;;;;4953080;29;20686;-76
2021/11/03 11:44:33;;;;;;;23.50;14.93;;;;;;;;;;4954840;28;20809;-77
2021/11/03 11:47:04;;;;;;;20.85;13.35;;;;;;;;;;4928995;29;20048;-76
2021/11/03 11:49:38;;;;;;;25.13;14.48;;;;;;;;;;4935971;29;20079;-74
2021/11/03 11:52:24;;;;;;;25.65;13.18;;;;;;;;;;4936134;29;20402;-75
2021/11/03 11:55:31;;;;;;;21.45;13.95;;;;;;;;;;4936015;29;20122;-76
2021/11/03 11:57:56;;;;;;;25.30;13.48;;;;;;;;;;4936884;29;20047;-74
2021/11/03 12:00:24;;;;;;;21.33;13.80;;;;;;;;;;4937581;29;20046;-76
2021/11/03 12:02:52;;;;;;;21.75;14.52;;;;;;;;;;4945460;29;20505;-76
2021/11/03 12:05:20;;;;;;;22.73;12.98;;;;;;;;;;4954809;28;20047;-74
2021/11/03 12:08:11;;;;;;;25.48;15.13;;;;;;;;;;4953619;29;20043;-75
2021/11/03 12:11:04;;;;;;;22.80;12.68;;;;;;;;;;4953941;29;20394;-74
2021/11/03 12:14:01;;;;;;;23.50;13.10;;;;;;;;;;4953487;29;20047;-75
2021/11/03 12:16:35;;;;;;;26.67;13.68;;;;;;;;;;4955228;28;20138;-75
2021/11/03 12:19:23;;;;;;;20.00;10.75;;;;;;;;;;4954565;29;20465;-75
2021/11/03 12:22:01;;;;;;;20.23;12.98;;;;;;;;;;4953772;28;20630;-76
2021/11/03 12:24:34;;;;;;;21.35;12.77;;;;;;;;;;4955084;28;20054;-76
2021/11/03 12:27:27;;;;;;;22.75;14.88;;;;;;;;;;4954323;29;20047;-76
2021/11/03 12:30:31;;;;;;;19.38;11.38;;;;;;;;;;4951594;29;20051;-77
2021/11/03 12:33:07;;;;;;;17.20;12.52;;;;;;;;;;4953752;29;20460;-74
2021/11/03 12:35:33;;;;;;;22.60;13.13;;;;;;;;;;4953678;28;20190;-74
2021/11/03 12:38:24;;;;;;;24.25;14.90;;;;;;;;;;4953470;29;20055;-75
2021/11/03 12:40:50;;;;;;;21.17;13.88;;;;;;;;;;4897221;29;20259;-75
2021/11/03 12:43:28;;;;;;;26.17;14.38;;;;;;;;;;4915561;29;20576;-73
2021/11/03 12:46:08;;;;;;;18.10;13.23;;;;;;;;;;4915734;29;20055;-75
2021/11/03 12:48:44;;;;;;;21.85;14.20;;;;;;;;;;4915693;29;20099;-75
2021/11/03 12:51:24;;;;;;;21.30;12.90;;;;;;;;;;4914467;29;20127;-74
2021/11/03 12:54:01;;;;;;;19.75;12.25;;;;;;;;;;4916368;29;20138;-76
2021/11/03 12:56:34;;;;;;;16.83;10.93;;;;;;;;;;4915918;29;20502;-76
2021/11/03 12:59:04;;;;;;;23.17;13.63;;;;;;;;;;4916527;29;20071;-74
2021/11/03 13:01:36;;;;;;;25.58;14.20;;;;;;;;;;4916298;29;20044;-75
2021/11/03 13:04:23;;;;;;;25.88;13.02;;;;;;;;;;4915394;29;20602;-74
2021/11/03 13:06:56;;;;;;;23.10;13.07;;;;;;;;;;4915948;29;20055;-76
2021/11/03 13:09:35;;;;;;;22.70;15.38;;;;;;;;;;4914696;29;20051;-75
2021/11/03 13:12:05;;;;;;;21.45;12.85;;;;;;;;;;4915508;29;20083;-75
2021/11/03 13:14:34;;;;;;;20.92;13.93;;;;;;;;;;4913805;29;20044;-75
2021/11/03 13:17:01;;;;;;;21.70;12.65;;;;;;;;;;4916213;29;20414;-74
2021/11/03 13:19:33;;;;;;;24.33;13.35;;;;;;;;;;4946584;28;20532;-74
2021/11/03 13:22:01;;;;;;;22.88;13.85;;;;;;;;;;4952870;29;20047;-74
2021/11/03 13:24:34;;;;;;;22.00;11.20;;;;;;;;;;4954087;28;20046;-75
2021/11/03 13:27:08;;;;;;;20.75;13.98;;;;;;;;;;4953456;28;20050;-76
2021/11/03 13:29:38;;;;;;;22.33;13.80;;;;;;;;;;4945974;28;20130;-74
2021/11/03 13:32:29;;;;;;;20.10;12.45;;;;;;;;;;4952607;28;20143;-75
2021/11/03 13:35:07;;;;;;;21.67;13.38;;;;;;;;;;4932397;29;20051;-75
2021/11/03 13:37:35;;;;;;;19.45;12.27;;;;;;;;;;4926083;29;20058;-75
2021/11/03 13:40:10;;;;;;;19.30;11.82;;;;;;;;;;4948037;29;20390;-76
2021/11/03 13:42:43;;;;;;;22.50;12.45;;;;;;;;;;4948869;29;20079;-75
2021/11/03 13:45:31;;;;;;;20.42;12.23;;;;;;;;;;4934105;29;20142;-76
2021/11/03 13:48:08;;;;;;;19.30;13.05;;;;;;;;;;4948196;28;20098;-75
2021/11/03 13:50:37;;;;;;;20.65;11.68;;;;;;;;;;4952996;28;20390;-75
2021/11/03 13:53:09;;;;;;;19.55;12.40;;;;;;;;;;4953284;28;20408;-76
2021/11/03 13:55:57;;;;;;;20.02;12.35;;;;;;;;;;4952044;28;20058;-76
2021/11/03 13:58:42;;;;;;;19.00;12.77;;;;;;;;;;4953311;28;20203;-76
2021/11/03 14:01:10;;;;;;;19.02;12.25;;;;;;;;;;4953283;28;20445;-75
2021/11/03 14:04:01;;;;;;;23.98;12.05;;;;;;;;;;4953621;28;20039;-74
2021/11/03 14:06:31;;;;;;;16.63;11.25;;;;;;;;;;4953647;28;20051;-73
2021/11/03 14:09:32;;;;;;;21.17;11.85;;;;;;;;;;4953383;28;20122;-73
2021/11/03 14:12:00;;;;;;;21.83;11.75;;;;;;;;;;4951734;28;20043;-74
2021/11/03 14:14:26;;;;;;;18.85;11.82;;;;;;;;;;4953355;28;20425;-74
2021/11/03 14:17:01;;;;;;;21.75;13.90;;;;;;;;;;4953232;28;20054;-74
2021/11/03 14:19:52;;;;;;;18.63;13.10;;;;;;;;;;4953445;28;20054;-75
2021/11/03 14:22:23;;;;;;;18.60;11.70;;;;;;;;;;4935324;29;20410;-74
2021/11/03 14:24:50;;;;;;;18.85;12.45;;;;;;;;;;4953211;28;20114;-73
2021/11/03 14:27:16;;;;;;;19.30;12.32;;;;;;;;;;4953260;28;20063;-74
2021/11/03 14:29:42;;;;;;;18.05;12.05;;;;;;;;;;4953682;28;20122;-73
2021/11/03 14:32:14;;;;;;;17.40;12.45;;;;;;;;;;4953299;28;20624;-75
2021/11/03 14:34:41;;;;;;;17.35;11.82;;;;;;;;;;4953071;28;20043;-73
2021/11/03 14:37:06;;;;;;;24.70;13.98;;;;;;;;;;4953446;28;20043;-74
2021/11/03 14:39:36;;;;;;;18.02;11.90;;;;;;;;;;4953462;28;20047;-75
2021/11/03 14:42:02;;;;;;;18.70;12.75;;;;;;;;;;4953479;28;20525;-74
2021/11/03 14:44:28;;;;;;;20.65;12.20;;;;;;;;;;4953744;28;20051;-74
2021/11/03 14:47:04;;;;;;;18.13;11.85;;;;;;;;;;4953429;28;20046;-73
2021/11/03 14:49:43;;;;;;;19.63;11.82;;;;;;;;;;4953261;28;20051;-73
2021/11/03 14:52:28;;;;;;;21.98;12.90;;;;;;;;;;4953152;28;20066;-73
2021/11/03 14:54:59;;;;;;;22.05;11.48;;;;;;;;;;4953215;28;20517;-73
2021/11/03 14:57:26;;;;;;;19.00;12.13;;;;;;;;;;4952177;29;21089;-73
2021/11/03 14:59:51;;;;;;;19.27;11.50;;;;;;;;;;4953024;28;20049;-73
2021/11/03 15:02:36;;;;;;;18.58;11.52;;;;;;;;;;4953326;28;20409;-74
2021/11/03 15:05:03;;;;;;;15.38;10.38;;;;;;;;;;4956951;28;20046;-75
2021/11/03 15:07:28;;;;;;;17.50;10.95;;;;;;;;;;4956951;28;20517;-74
2021/11/03 15:09:55;;;;;;;18.23;12.23;;;;;;;;;;4956889;28;20049;-74
2021/11/03 15:12:21;;;;;;;18.83;10.75;;;;;;;;;;4955689;28;20054;-74
2021/11/03 15:14:47;;;;;;;16.52;10.20;;;;;;;;;;4956540;28;20131;-74
2021/11/03 15:17:30;;;;;;;18.05;11.00;;;;;;;;;;4956916;28;20094;-74
2021/11/03 15:20:02;;;;;;;16.33;11.60;;;;;;;;;;4956918;28;20072;-77
2021/11/03 15:22:29;;;;;;;16.98;11.60;;;;;;;;;;4955235;28;20081;-74
2021/11/03 15:24:55;;;;;;;18.73;11.95;;;;;;;;;;4956842;28;20045;-74
2021/11/03 15:27:22;;;;;;;21.40;10.55;;;;;;;;;;4956277;28;20122;-74
2021/11/03 15:29:48;;;;;;;17.15;11.38;;;;;;;;;;4956035;28;20043;-74
2021/11/03 15:32:20;;;;;;;20.25;11.18;;;;;;;;;;4956519;28;20043;-74
2021/11/03 15:34:47;;;;;;;19.27;10.55;;;;;;;;;;4956377;28;20529;-74
2021/11/03 15:37:24;;;;;;;17.83;11.43;;;;;;;;;;4956178;28;20532;-74
2021/11/03 15:39:53;;;;;;;12.80;9.43;;;;;;;;;;4956436;28;20525;-73
2021/11/03 15:42:21;;;;;;;15.10;10.07;;;;;;;;;;4956392;28;20142;-72
2021/11/03 15:44:47;;;;;;;18.48;12.15;;;;;;;;;;4955963;28;20039;-73
2021/11/03 15:47:17;;;;;;;16.85;11.60;;;;;;;;;;4955783;28;20047;-74
2021/11/03 15:49:43;;;;;;;19.00;11.38;;;;;;;;;;4956123;28;20382;-75
2021/11/03 15:52:15;;;;;;;16.02;12.57;;;;;;;;;;4956022;28;20117;-74
2021/11/03 15:54:41;;;;;;;17.13;12.63;;;;;;;;;;4955916;28;20579;-74
2021/11/03 15:57:07;;;;;;;16.00;11.07;;;;;;;;;;4956109;28;20122;-74
2021/11/03 15:59:32;;;;;;;19.70;14.30;;;;;;;;;;4956051;28;20084;-75
2021/11/03 16:01:59;;;;;;;21.05;12.80;;;;;;;;;;4955811;28;20055;-75
2021/11/03 16:04:29;;;;;;;18.23;13.75;;;;;;;;;;4955957;28;20071;-73
2021/11/03 16:06:56;;;;;;;18.77;13.55;;;;;;;;;;4956001;28;20106;-75
2021/11/03 16:09:25;;;;;;;24.33;14.20;;;;;;;;;;4938799;28;20050;-75
2021/11/03 16:11:53;;;;;;;27.08;15.40;;;;;;;;;;4956045;28;20073;-73
2021/11/03 16:14:26;;;;;;;22.30;14.63;;;;;;;;;;4955439;28;20493;-74
2021/11/03 16:16:54;;;;;;;18.92;13.25;;;;;;;;;;4955584;28;20043;-74
2021/11/03 16:19:21;;;;;;;24.00;15.25;;;;;;;;;;4956047;28;20043;-74
2021/11/03 16:21:49;;;;;;;23.13;15.80;;;;;;;;;;4955710;28;20473;-75
2021/11/03 16:24:25;;;;;;;20.90;14.23;;;;;;;;;;4955711;28;20039;-74
2021/11/03 16:26:52;;;;;;;17.88;11.85;;;;;;;;;;4955389;28;20067;-73
2021/11/03 16:29:26;;;;;;;22.55;13.70;;;;;;;;;;4955593;28;20035;-73
2021/11/03 16:31:52;;;;;;;23.05;13.95;;;;;;;;;;4955735;28;20055;-79
2021/11/03 16:34:19;;;;;;;21.42;14.85;;;;;;;;;;4955526;28;20043;-79
2021/11/03 16:36:45;;;;;;;21.48;14.45;;;;;;;;;;4955327;28;20075;-77
2021/11/03 16:39:15;;;;;;;22.67;13.05;;;;;;;;;;4955388;28;20382;-79
2021/11/03 16:41:43;;;;;;;22.08;14.52;;;;;;;;;;4943331;28;20076;-77
2021/11/03 16:46:37;;;;;;;20.75;13.10;;;;;;;;;;4967529;28;20051;-78
2021/11/03 16:52:23;;;;;;;25.40;15.35;;;;;;;;;;5666868;23;20051;-78
2021/11/03 16:54:49;;;;;;;23.33;15.20;;;;;;;;;;4926492;28;20090;-79
2021/11/03 16:57:15;;;;;;;26.17;17.90;;;;;;;;;;4934297;29;20115;-81
2021/11/03 16:59:41;;;;;;;26.63;16.08;;;;;;;;;;4946047;29;20094;-78
2021/11/03 17:02:07;;;;;;;26.10;15.32;;;;;;;;;;4953677;29;20102;-79
2021/11/03 17:04:32;;;;;;;24.20;14.30;;;;;;;;;;4954210;29;20051;-79
2021/11/03 17:07:03;;;;;;;23.38;14.85;;;;;;;;;;4953926;28;20504;-79
2021/11/03 17:09:34;;;;;;;26.13;16.17;;;;;;;;;;4920232;29;20048;-79
2021/11/03 17:12:00;;;;;;;23.25;14.73;;;;;;;;;;4954065;29;20055;-79
2021/11/03 17:14:32;;;;;;;24.58;16.10;;;;;;;;;;4953464;29;20043;-79
2021/11/03 17:16:58;;;;;;;21.90;14.95;;;;;;;;;;4953442;29;20097;-79
2021/11/03 17:19:28;;;;;;;20.67;13.82;;;;;;;;;;4932648;29;20047;-78
2021/11/03 17:21:57;;;;;;;19.60;13.60;;;;;;;;;;4951952;29;20549;-80
2021/11/03 17:24:26;;;;;;;17.90;12.38;;;;;;;;;;4951436;29;20142;-79
2021/11/03 17:26:57;;;;;;;18.35;13.15;;;;;;;;;;4952361;28;20137;-78
2021/11/03 17:29:30;;;;;;;19.08;12.45;;;;;;;;;;4952400;29;20062;-78
2021/11/03 17:32:03;;;;;;;20.48;13.10;;;;;;;;;;4953543;29;20039;-77
2021/11/03 17:34:29;;;;;;;18.10;12.05;;;;;;;;;;4953811;29;20531;-78
2021/11/03 17:36:55;;;;;;;19.25;11.73;;;;;;;;;;4935829;29;20043;-78
2021/11/03 17:39:22;;;;;;;15.57;11.25;;;;;;;;;;4953459;29;20094;-78
2021/11/03 17:41:53;;;;;;;15.55;10.73;;;;;;;;;;4952045;29;20038;-79
2021/11/03 17:44:30;;;;;;;13.90;10.95;;;;;;;;;;4951701;29;20049;-79
2021/11/03 17:46:58;;;;;;;15.02;10.60;;;;;;;;;;4953035;29;20559;-76
2021/11/03 17:49:30;;;;;;;16.83;11.90;;;;;;;;;;4935101;29;20075;-79
2021/11/03 17:51:59;;;;;;;16.42;11.63;;;;;;;;;;4951985;29;20035;-78
2021/11/03 17:54:28;;;;;;;16.45;11.57;;;;;;;;;;4951435;29;20078;-77
2021/11/03 17:56:56;;;;;;;15.10;11.40;;;;;;;;;;4952667;29;20137;-78
2021/11/03 17:59:24;;;;;;;17.08;13.45;;;;;;;;;;4951354;29;20130;-79
2021/11/03 18:01:55;;;;;;;18.80;11.82;;;;;;;;;;4953856;29;20047;-76
2021/11/03 18:04:23;;;;;;;16.10;11.65;;;;;;;;;;4934391;29;20039;-81
2021/11/03 18:06:50;;;;;;;16.95;12.57;;;;;;;;;;4948881;29;20055;-79
2021/11/03 18:09:16;;;;;;;15.18;12.00;;;;;;;;;;4935299;29;20039;-78
2021/11/03 18:11:44;;;;;;;19.50;13.20;;;;;;;;;;4952138;29;20138;-78
2021/11/03 18:14:17;;;;;;;18.83;12.73;;;;;;;;;;4935027;29;20047;-78
2021/11/03 18:16:44;;;;;;;19.75;12.38;;;;;;;;;;4953163;29;20074;-78
2021/11/03 18:19:17;;;;;;;20.90;13.77;;;;;;;;;;4935051;29;20563;-78
2021/11/03 18:21:43;;;;;;;21.73;13.98;;;;;;;;;;4934422;29;20571;-78
2021/11/03 18:24:09;;;;;;;16.40;11.98;;;;;;;;;;4934847;29;20563;-78
2021/11/03 18:26:40;;;;;;;18.70;12.63;;;;;;;;;;4952689;29;20047;-79
2021/11/03 18:29:06;;;;;;;18.38;12.88;;;;;;;;;;4931410;29;20778;-77
2021/11/03 18:31:37;;;;;;;19.33;11.63;;;;;;;;;;4934622;29;20468;-78
2021/11/03 18:34:05;;;;;;;17.45;11.98;;;;;;;;;;4952511;29;20066;-78
2021/11/03 18:36:32;;;;;;;16.85;12.10;;;;;;;;;;4951139;29;20075;-79
2021/11/03 18:38:58;;;;;;;15.82;12.27;;;;;;;;;;4952236;29;20047;-79
2021/11/03 18:41:32;;;;;;;16.77;10.60;;;;;;;;;;4952408;29;20488;-79
2021/11/03 18:43:59;;;;;;;19.23;12.75;;;;;;;;;;4951829;29;20039;-79
2021/11/03 18:46:25;;;;;;;17.23;10.80;;;;;;;;;;4951132;29;20047;-77
2021/11/03 18:48:54;;;;;;;14.65;11.40;;;;;;;;;;4951366;29;20058;-78
2021/11/03 18:51:30;;;;;;;18.77;11.60;;;;;;;;;;4951548;29;20055;-78
2021/11/03 18:53:57;;;;;;;18.83;12.15;;;;;;;;;;4932491;29;20074;-76
2021/11/03 18:56:24;;;;;;;18.73;12.30;;;;;;;;;;4951962;29;20047;-78
2021/11/03 18:58:51;;;;;;;18.40;12.63;;;;;;;;;;4951714;29;20055;-77
2021/11/03 19:01:17;;;;;;;17.20;11.13;;;;;;;;;;4952192;29;20047;-80
2021/11/03 19:03:43;;;;;;;18.02;12.02;;;;;;;;;;4951948;29;20098;-80
2021/11/03 19:06:31;;;;;;;17.73;12.68;;;;;;;;;;4951130;29;20225;-79
2021/11/03 19:09:02;;;;;;;18.02;12.02;;;;;;;;;;4950705;29;20047;-79
2021/11/03 19:11:29;;;;;;;16.83;11.88;;;;;;;;;;4934324;29;20085;-78
2021/11/03 19:13:54;;;;;;;16.33;11.77;;;;;;;;;;4933632;29;20043;-79
2021/11/03 19:16:20;;;;;;;16.23;12.18;;;;;;;;;;4948635;29;20039;-78
2021/11/03 19:18:46;;;;;;;19.10;12.93;;;;;;;;;;4952162;29;20563;-80
2021/11/03 19:21:25;;;;;;;15.80;12.18;;;;;;;;;;4952013;29;20098;-80
2021/11/03 19:23:53;;;;;;;17.60;11.07;;;;;;;;;;4952066;29;20047;-79
2021/11/03 19:26:20;;;;;;;18.77;11.48;;;;;;;;;;4952270;29;20126;-80
2021/11/03 19:28:47;;;;;;;16.98;11.25;;;;;;;;;;4934468;29;20062;-77
2021/11/03 19:31:13;;;;;;;18.17;12.57;;;;;;;;;;4952471;29;20126;-79
2021/11/03 19:33:40;;;;;;;16.67;11.57;;;;;;;;;;4951242;29;20158;-78
2021/11/03 19:36:20;;;;;;;18.13;12.88;;;;;;;;;;4934013;29;20043;-78
2021/11/03 19:38:47;;;;;;;18.00;13.65;;;;;;;;;;4945875;29;20138;-81
2021/11/03 19:41:17;;;;;;;18.65;11.43;;;;;;;;;;4951395;29;20037;-79
2021/11/03 19:43:43;;;;;;;20.42;12.10;;;;;;;;;;4952430;29;20035;-79
2021/11/03 19:46:09;;;;;;;19.98;13.23;;;;;;;;;;4951224;29;20050;-79
2021/11/03 19:48:34;;;;;;;18.33;13.10;;;;;;;;;;4951051;28;20043;-80
2021/11/03 19:51:10;;;;;;;21.65;13.63;;;;;;;;;;4954816;28;20047;-81
2021/11/03 19:53:43;;;;;;;23.67;13.63;;;;;;;;;;4954742;28;20054;-79
2021/11/03 19:56:12;;;;;;;22.23;15.40;;;;;;;;;;4954954;28;20055;-79
2021/11/03 19:58:37;;;;;;;22.88;14.13;;;;;;;;;;4953934;28;20051;-79
2021/11/03 20:01:04;;;;;;;19.98;13.95;;;;;;;;;;4954790;29;20057;-79
2021/11/03 20:03:30;;;;;;;21.15;13.88;;;;;;;;;;4953162;28;20051;-78
2021/11/03 20:05:57;;;;;;;25.80;15.07;;;;;;;;;;4954282;28;20050;-78
2021/11/03 20:08:29;;;;;;;26.42;15.18;;;;;;;;;;4954952;29;20055;-79
2021/11/03 20:10:58;;;;;;;27.08;15.98;;;;;;;;;;4955355;29;20051;-79
2021/11/03 20:13:26;;;;;;;27.50;14.55;;;;;;;;;;4954716;28;20047;-79
2021/11/03 20:15:55;;;;;;;24.75;14.13;;;;;;;;;;4955947;29;20043;-79
2021/11/03 20:18:39;;;;;;;25.10;14.68;;;;;;;;;;4955243;28;20102;-78
2021/11/03 20:21:06;;;;;;;24.13;15.48;;;;;;;;;;4954536;28;20059;-78
2021/11/03 20:23:32;;;;;;;23.50;15.00;;;;;;;;;;4955018;28;20066;-79
2021/11/03 20:25:58;;;;;;;22.65;15.25;;;;;;;;;;4934686;28;20042;-78
2021/11/03 20:28:24;;;;;;;22.65;14.43;;;;;;;;;;4953711;28;20544;-79
2021/11/03 20:30:55;;;;;;;22.33;13.18;;;;;;;;;;4954861;28;20079;-79
2021/11/03 20:33:33;;;;;;;23.02;14.30;;;;;;;;;;4954615;29;20122;-79
2021/11/03 20:36:06;;;;;;;25.23;14.10;;;;;;;;;;4954252;28;20044;-79
2021/11/03 20:38:39;;;;;;;24.25;15.25;;;;;;;;;;4954618;28;20102;-79
2021/11/03 20:41:08;;;;;;;21.58;13.77;;;;;;;;;;4953731;28;20047;-79
2021/11/03 20:43:33;;;;;;;20.17;13.02;;;;;;;;;;4954012;29;20047;-78
2021/11/03 20:45:59;;;;;;;24.47;13.53;;;;;;;;;;4936848;29;20396;-78
2021/11/03 20:48:26;;;;;;;19.60;13.65;;;;;;;;;;4954287;29;20283;-78
2021/11/03 20:50:54;;;;;;;22.80;13.52;;;;;;;;;;4951500;29;20436;-79
2021/11/03 20:53:33;;;;;;;21.90;14.88;;;;;;;;;;4936914;29;20132;-79
2021/11/03 20:56:08;;;;;;;21.65;12.73;;;;;;;;;;4953070;29;20051;-77
2021/11/03 20:58:35;;;;;;;19.63;13.77;;;;;;;;;;4952695;29;20525;-79
2021/11/03 21:01:04;;;;;;;19.02;13.02;;;;;;;;;;4934945;29;20051;-78
2021/11/03 21:03:30;;;;;;;20.13;12.90;;;;;;;;;;4953739;29;20050;-78
2021/11/03 21:05:55;;;;;;;21.35;13.68;;;;;;;;;;4953053;29;20035;-78
2021/11/03 21:08:21;;;;;;;17.60;11.60;;;;;;;;;;4936901;29;20699;-79
2021/11/03 21:10:47;;;;;;;19.10;13.23;;;;;;;;;;4953998;29;20062;-79
2021/11/03 21:13:16;;;;;;;20.50;12.93;;;;;;;;;;4952069;29;20057;-78
2021/11/03 21:15:45;;;;;;;17.25;11.45;;;;;;;;;;4953317;29;20050;-79
2021/11/03 21:18:13;;;;;;;15.85;9.52;;;;;;;;;;4953372;29;20047;-77
2021/11/03 21:20:41;;;;;;;17.20;12.07;;;;;;;;;;4952935;29;20053;-77
2021/11/03 21:23:07;;;;;;;17.58;11.80;;;;;;;;;;4935155;29;20504;-78
2021/11/03 21:25:42;;;;;;;17.65;10.57;;;;;;;;;;4950823;29;20399;-78
2021/11/03 21:28:09;;;;;;;14.93;11.05;;;;;;;;;;4949765;29;20035;-78
2021/11/03 21:30:36;;;;;;;18.02;11.60;;;;;;;;;;4952688;29;20106;-78
2021/11/03 21:33:06;;;;;;;15.45;10.15;;;;;;;;;;4951904;29;20051;-77
2021/11/03 21:35:32;;;;;;;;;;;;;;;;;;4953939;29;20157;-78
2021/11/03 21:37:59;;;;;;;14.68;9.88;;;;;;;;;;4951665;29;19942;-78
2021/11/03 21:40:25;;;;;;;16.98;11.20;;;;;;;;;;4953312;29;20043;-78
2021/11/03 21:42:52;;;;;;;16.85;11.73;;;;;;;;;;4952534;29;20402;-78
2021/11/03 21:45:19;;;;;;;13.27;10.20;;;;;;;;;;4952287;29;20055;-78
2021/11/03 21:47:45;;;;;;;14.25;10.25;;;;;;;;;;4953173;29;20133;-78
2021/11/03 21:50:12;;;;;;;14.48;10.30;;;;;;;;;;4953242;29;20118;-78
2021/11/03 21:52:38;;;;;;;16.42;10.30;;;;;;;;;;4952625;29;20508;-80
2021/11/03 21:55:06;;;;;;;16.50;11.23;;;;;;;;;;4952819;29;20047;-78
2021/11/03 21:57:33;;;;;;;13.52;10.32;;;;;;;;;;4952933;29;20046;-78
2021/11/03 22:00:00;;;;;;;14.18;10.93;;;;;;;;;;4950950;29;20409;-79
2021/11/03 22:02:25;;;;;;;15.73;11.35;;;;;;;;;;4952765;29;20078;-77
2021/11/03 22:04:51;;;;;;;18.50;12.00;;;;;;;;;;4952479;29;20043;-77
2021/11/03 22:07:18;;;;;;;17.38;10.95;;;;;;;;;;4935859;29;20039;-78
2021/11/03 22:09:45;;;;;;;20.67;10.98;;;;;;;;;;4936566;29;20535;-77
2021/11/03 22:12:11;;;;;;;15.52;10.75;;;;;;;;;;4952226;28;20101;-78
2021/11/03 22:14:36;;;;;;;15.02;9.95;;;;;;;;;;4952797;29;20047;-77
2021/11/03 22:17:03;;;;;;;17.25;10.45;;;;;;;;;;4951183;29;20047;-77
2021/11/03 22:19:28;;;;;;;21.75;11.88;;;;;;;;;;4951711;29;20047;-77
2021/11/03 22:21:54;;;;;;;18.27;12.00;;;;;;;;;;4952431;29;20043;-79
2021/11/03 22:24:19;;;;;;;15.07;11.57;;;;;;;;;;4950318;29;20058;-78
2021/11/03 22:26:45;;;;;;;17.27;11.68;;;;;;;;;;4952890;29;20135;-78
2021/11/03 22:29:10;;;;;;;17.42;11.60;;;;;;;;;;4952041;29;20039;-77
2021/11/03 22:31:36;;;;;;;17.27;11.23;;;;;;;;;;4952747;29;20102;-79
2021/11/03 22:34:02;;;;;;;17.35;12.65;;;;;;;;;;4949892;29;20039;-78
2021/11/03 22:36:27;;;;;;;17.70;11.75;;;;;;;;;;4951464;29;20051;-78
2021/11/03 22:38:56;;;;;;;20.35;11.65;;;;;;;;;;4952198;29;20110;-78
2021/11/03 22:41:22;;;;;;;16.75;12.25;;;;;;;;;;4950276;29;20082;-78
2021/11/03 22:43:47;;;;;;;15.65;11.80;;;;;;;;;;4935171;29;20145;-79
2021/11/03 22:46:13;;;;;;;18.48;12.02;;;;;;;;;;4952215;29;20047;-80
2021/11/03 22:48:39;;;;;;;18.00;11.63;;;;;;;;;;4950505;29;20464;-78
2021/11/03 22:51:04;;;;;;;18.95;12.25;;;;;;;;;;4952641;29;20043;-77
2021/11/03 22:53:31;;;;;;;18.83;13.18;;;;;;;;;;4952252;29;20156;-78
2021/11/03 22:55:56;;;;;;;16.77;11.40;;;;;;;;;;4950367;29;20039;-79
2021/11/03 22:58:22;;;;;;;15.55;10.98;;;;;;;;;;4952107;29;20039;-78
2021/11/03 23:00:50;;;;;;;16.38;11.80;;;;;;;;;;4952279;29;20055;-78
2021/11/03 23:03:17;;;;;;;17.80;12.18;;;;;;;;;;4933586;29;20417;-77
2021/11/03 23:05:44;;;;;;;16.02;12.00;;;;;;;;;;4934973;29;20047;-77